Gettysburg, SD

23:27 CDT le 29 août 2014 (GMT -0500)
Chamberlain | Change Station
CLOSE
Current Station
Aéroport
Location: Chamberlain,
Altitude: 1693 ft
Stations météo à proximité

Alt. 1693 ft 43.77 °N, 99.32 °W | Updated 12 minutes ago

Clear
Ciel dégagé
64 ° F
Paraît 64 ° F
N
0
Vent Variable Vent de Nord

Aujourd'hui
Haut(e) -- | Bas -- ° F
--% Risque de précip.
Hier
Haut(e) -- | Bas -- ° F
Precip. -- pouce
6:58 AM 8:22 PM
Lune montante, 19% visible
Pression 29.93 pouce
Visibilité 10.0 Miles terrestres
Nuages Ciel dégagé
Point de rosée 60 ° F
Humidité 86%
Précipitations 0.02 pouce
Profondeur de la couche neigeuse Non disponible.
UV 0 sur 12
Pollen 9.50 sur 12
Qualité de l'air Non disponible.
Flu Activity Non disponible.
METAR K9V9 300415Z AUTO 00000KT 10SM CLR 18/16 A2993 RMK AO2 T01780155

More Conditions Fewer Conditions

Pression 29.93 pouce
Visibilité 10.0 Miles terrestres
Nuages Ciel dégagé
Point de rosée 60 ° F
Humidité 86%
Précipitations 0.02 pouce
Profondeur de la couche neigeuse Non disponible.
UV 0 sur 12
Pollen 9.50 sur 12
Qualité de l'air Non disponible.
Flu Activity Non disponible.
METAR K9V9 300415Z AUTO 00000KT 10SM CLR 18/16 A2993 RMK AO2 T01780155

More Conditions Fewer Conditions

10-Day Weather Forecast

Almanac

Astronomie

Aug. 29, 2014 Lever Coucher
Temps réel 06:58 CDT 20:22 CDT
Crépuscule civil 06:27 CDT 20:52 CDT
Crépuscule nautique 05:50 CDT 21:29 CDT
Crépuscule astronomique 05:11 CDT 22:08 CDT
Lune 11:01 CDT (8/29) 22:08 CDT (8/29)
Durée de lumière visible 14h 25m
Longueur du jour
13h 23m
Tomorrow will be 2m 59s shorter.
Lune montante, 19% of the Moon is Illuminated
août 30
Lune montante
Sep 2
Premier quartier
Sep 8
Pleine lune
Sep 15
Dernier quartier
Sep 24
Nouveau

Extrêmes aujourd'hui

State Highs State Lows

Community

WunderPhotos

Upload Photos

1,748,451 Photos téléchargées !

Nearby

Épaisseur de neige

Station Depth Altitude
Blind Park 0 in 6890 ft

Activité sismique

Ville Distance Mag. Time & Date
No recent earthquake activity has been reported nearby.
Minimum magnitude displayed is 2.5.

Températures des eaux côtières

Lieu Température
Aucun rapport de station

Stations météo à proximité